sensor_id;sensor_type;location;lat;lon;timestamp;P1;durP1;ratioP1;P2;durP2;ratioP2
72235;SDS011;60146;52.498;13.462;2022-10-23T00:01:26;8.97;;;3.97;;
72235;SDS011;60146;52.498;13.462;2022-10-23T00:03:59;8.93;;;4.17;;
72235;SDS011;60146;52.498;13.462;2022-10-23T00:06:25;9.63;;;4.50;;
72235;SDS011;60146;52.498;13.462;2022-10-23T00:08:50;8.03;;;4.17;;
72235;SDS011;60146;52.498;13.462;2022-10-23T00:11:17;9.50;;;4.83;;
72235;SDS011;60146;52.498;13.462;2022-10-23T00:13:43;8.93;;;4.67;;
72235;SDS011;60146;52.498;13.462;2022-10-23T00:16:08;15.50;;;4.93;;
72235;SDS011;60146;52.498;13.462;2022-10-23T00:18:34;13.40;;;5.17;;
72235;SDS011;60146;52.498;13.462;2022-10-23T00:20:59;12.23;;;5.00;;
72235;SDS011;60146;52.498;13.462;2022-10-23T00:23:24;11.90;;;4.73;;
72235;SDS011;60146;52.498;13.462;2022-10-23T00:25:50;9.70;;;5.13;;
72235;SDS011;60146;52.498;13.462;2022-10-23T00:28:15;9.90;;;4.97;;
72235;SDS011;60146;52.498;13.462;2022-10-23T00:30:40;12.60;;;5.73;;
72235;SDS011;60146;52.498;13.462;2022-10-23T00:33:05;10.33;;;5.43;;
72235;SDS011;60146;52.498;13.462;2022-10-23T00:35:31;12.30;;;5.10;;
72235;SDS011;60146;52.498;13.462;2022-10-23T00:37:56;14.50;;;5.43;;
72235;SDS011;60146;52.498;13.462;2022-10-23T00:40:21;12.53;;;5.07;;
72235;SDS011;60146;52.498;13.462;2022-10-23T00:42:46;9.03;;;4.87;;
72235;SDS011;60146;52.498;13.462;2022-10-23T00:45:17;10.20;;;4.70;;
72235;SDS011;60146;52.498;13.462;2022-10-23T00:47:43;12.20;;;5.23;;
72235;SDS011;60146;52.498;13.462;2022-10-23T00:50:08;11.60;;;5.13;;
72235;SDS011;60146;52.498;13.462;2022-10-23T00:52:34;9.87;;;5.20;;
72235;SDS011;60146;52.498;13.462;2022-10-23T00:55:01;13.70;;;4.73;;
72235;SDS011;60146;52.498;13.462;2022-10-23T00:57:26;8.13;;;4.50;;
72235;SDS011;60146;52.498;13.462;2022-10-23T00:59:51;13.13;;;5.10;;
72235;SDS011;60146;52.498;13.462;2022-10-23T01:02:17;9.33;;;5.10;;
72235;SDS011;60146;52.498;13.462;2022-10-23T01:04:42;11.97;;;5.00;;
72235;SDS011;60146;52.498;13.462;2022-10-23T01:07:10;12.53;;;4.37;;
72235;SDS011;60146;52.498;13.462;2022-10-23T01:09:53;10.00;;;4.47;;
72235;SDS011;60146;52.498;13.462;2022-10-23T01:29:48;7.63;;;4.10;;
72235;SDS011;60146;52.498;13.462;2022-10-23T01:32:16;12.80;;;4.70;;
72235;SDS011;60146;52.498;13.462;2022-10-23T01:37:11;8.20;;;4.43;;
72235;SDS011;60146;52.498;13.462;2022-10-23T01:39:39;11.63;;;5.07;;
72235;SDS011;60146;52.498;13.462;2022-10-23T01:42:09;7.45;;;4.45;;
72235;SDS011;60146;52.498;13.462;2022-10-23T01:46:59;8.88;;;4.82;;
72235;SDS011;60146;52.498;13.462;2022-10-23T01:49:26;8.23;;;4.00;;
72235;SDS011;60146;52.498;13.462;2022-10-23T01:51:56;11.33;;;4.60;;
72235;SDS011;60146;52.498;13.462;2022-10-23T01:54:24;8.33;;;4.53;;
72235;SDS011;60146;52.498;13.462;2022-10-23T01:56:50;12.13;;;4.70;;
72235;SDS011;60146;52.498;13.462;2022-10-23T01:59:18;10.30;;;4.80;;
72235;SDS011;60146;52.498;13.462;2022-10-23T02:01:45;11.07;;;4.97;;
72235;SDS011;60146;52.498;13.462;2022-10-23T02:04:12;15.27;;;6.40;;
72235;SDS011;60146;52.498;13.462;2022-10-23T02:06:38;11.33;;;4.73;;
72235;SDS011;60146;52.498;13.462;2022-10-23T02:09:04;10.63;;;4.73;;
72235;SDS011;60146;52.498;13.462;2022-10-23T02:11:29;13.30;;;5.27;;
72235;SDS011;60146;52.498;13.462;2022-10-23T02:14:01;10.87;;;4.70;;
72235;SDS011;60146;52.498;13.462;2022-10-23T02:19:03;11.40;;;4.70;;
72235;SDS011;60146;52.498;13.462;2022-10-23T02:22:06;9.30;;;4.73;;
72235;SDS011;60146;52.498;13.462;2022-10-23T02:24:28;12.03;;;4.83;;
72235;SDS011;60146;52.498;13.462;2022-10-23T02:26:56;10.60;;;4.40;;
72235;SDS011;60146;52.498;13.462;2022-10-23T02:29:24;9.00;;;4.47;;
72235;SDS011;60146;52.498;13.462;2022-10-23T02:31:51;8.43;;;4.57;;
72235;SDS011;60146;52.498;13.462;2022-10-23T02:34:16;8.60;;;4.47;;
72235;SDS011;60146;52.498;13.462;2022-10-23T02:36:42;10.33;;;4.47;;
72235;SDS011;60146;52.498;13.462;2022-10-23T02:39:07;10.30;;;4.87;;
72235;SDS011;60146;52.498;13.462;2022-10-23T02:41:37;8.13;;;4.50;;
72235;SDS011;60146;52.498;13.462;2022-10-23T02:49:34;9.03;;;4.33;;
72235;SDS011;60146;52.498;13.462;2022-10-23T02:52:08;11.10;;;4.47;;
72235;SDS011;60146;52.498;13.462;2022-10-23T03:00:13;9.90;;;4.97;;
72235;SDS011;60146;52.498;13.462;2022-10-23T03:02:40;14.20;;;6.60;;
72235;SDS011;60146;52.498;13.462;2022-10-23T03:05:08;13.67;;;5.60;;
72235;SDS011;60146;52.498;13.462;2022-10-23T03:07:34;11.53;;;4.53;;
72235;SDS011;60146;52.498;13.462;2022-10-23T03:10:00;9.53;;;4.57;;
72235;SDS011;60146;52.498;13.462;2022-10-23T03:12:25;14.47;;;4.60;;
72235;SDS011;60146;52.498;13.462;2022-10-23T03:14:50;8.80;;;4.57;;
72235;SDS011;60146;52.498;13.462;2022-10-23T03:17:15;10.47;;;4.60;;
72235;SDS011;60146;52.498;13.462;2022-10-23T03:19:41;9.83;;;4.93;;
72235;SDS011;60146;52.498;13.462;2022-10-23T03:22:06;10.30;;;4.53;;
72235;SDS011;60146;52.498;13.462;2022-10-23T03:24:31;10.47;;;4.43;;
72235;SDS011;60146;52.498;13.462;2022-10-23T03:26:56;9.83;;;5.00;;
72235;SDS011;60146;52.498;13.462;2022-10-23T03:29:21;9.23;;;4.60;;
72235;SDS011;60146;52.498;13.462;2022-10-23T03:31:46;12.57;;;5.17;;
72235;SDS011;60146;52.498;13.462;2022-10-23T03:34:12;8.20;;;4.73;;
72235;SDS011;60146;52.498;13.462;2022-10-23T03:36:38;8.27;;;4.33;;
72235;SDS011;60146;52.498;13.462;2022-10-23T03:39:04;12.60;;;4.97;;
72235;SDS011;60146;52.498;13.462;2022-10-23T03:41:29;10.20;;;4.80;;
72235;SDS011;60146;52.498;13.462;2022-10-23T03:43:55;10.47;;;4.77;;
72235;SDS011;60146;52.498;13.462;2022-10-23T03:46:20;11.50;;;4.73;;
72235;SDS011;60146;52.498;13.462;2022-10-23T03:48:45;10.17;;;4.80;;
72235;SDS011;60146;52.498;13.462;2022-10-23T03:51:10;11.67;;;4.83;;
72235;SDS011;60146;52.498;13.462;2022-10-23T03:53:36;10.77;;;4.80;;
72235;SDS011;60146;52.498;13.462;2022-10-23T03:56:01;11.00;;;5.00;;
72235;SDS011;60146;52.498;13.462;2022-10-23T03:58:26;11.30;;;5.00;;
72235;SDS011;60146;52.498;13.462;2022-10-23T04:00:51;12.30;;;5.40;;
72235;SDS011;60146;52.498;13.462;2022-10-23T04:03:16;11.33;;;4.60;;
72235;SDS011;60146;52.498;13.462;2022-10-23T04:05:42;12.33;;;5.10;;
72235;SDS011;60146;52.498;13.462;2022-10-23T04:08:08;11.00;;;4.57;;
72235;SDS011;60146;52.498;13.462;2022-10-23T04:10:33;14.80;;;5.30;;
72235;SDS011;60146;52.498;13.462;2022-10-23T04:12:59;10.93;;;5.20;;
72235;SDS011;60146;52.498;13.462;2022-10-23T04:15:24;10.17;;;5.00;;
72235;SDS011;60146;52.498;13.462;2022-10-23T04:17:49;13.53;;;5.20;;
72235;SDS011;60146;52.498;13.462;2022-10-23T04:20:14;10.17;;;5.00;;
72235;SDS011;60146;52.498;13.462;2022-10-23T04:22:40;12.00;;;5.53;;
72235;SDS011;60146;52.498;13.462;2022-10-23T04:25:05;10.33;;;4.90;;
72235;SDS011;60146;52.498;13.462;2022-10-23T04:27:30;14.57;;;5.00;;
72235;SDS011;60146;52.498;13.462;2022-10-23T04:29:55;13.77;;;5.83;;
72235;SDS011;60146;52.498;13.462;2022-10-23T04:32:21;16.50;;;6.13;;
72235;SDS011;60146;52.498;13.462;2022-10-23T04:34:46;15.00;;;5.97;;
72235;SDS011;60146;52.498;13.462;2022-10-23T04:37:11;14.20;;;6.17;;
72235;SDS011;60146;52.498;13.462;2022-10-23T04:39:36;11.53;;;5.63;;
72235;SDS011;60146;52.498;13.462;2022-10-23T04:42:01;14.03;;;6.60;;
72235;SDS011;60146;52.498;13.462;2022-10-23T04:44:27;16.80;;;7.43;;
72235;SDS011;60146;52.498;13.462;2022-10-23T04:46:52;12.00;;;6.13;;
72235;SDS011;60146;52.498;13.462;2022-10-23T04:49:17;13.67;;;6.20;;
72235;SDS011;60146;52.498;13.462;2022-10-23T04:51:42;14.60;;;6.50;;
72235;SDS011;60146;52.498;13.462;2022-10-23T04:54:07;12.63;;;6.07;;
72235;SDS011;60146;52.498;13.462;2022-10-23T04:56:33;11.00;;;5.70;;
72235;SDS011;60146;52.498;13.462;2022-10-23T04:58:59;15.17;;;6.67;;
72235;SDS011;60146;52.498;13.462;2022-10-23T05:01:24;22.23;;;8.90;;
72235;SDS011;60146;52.498;13.462;2022-10-23T05:03:49;15.57;;;6.50;;
72235;SDS011;60146;52.498;13.462;2022-10-23T05:06:14;13.47;;;6.17;;
72235;SDS011;60146;52.498;13.462;2022-10-23T05:08:39;15.70;;;6.60;;
72235;SDS011;60146;52.498;13.462;2022-10-23T05:11:05;27.13;;;9.70;;
72235;SDS011;60146;52.498;13.462;2022-10-23T05:13:30;15.37;;;7.23;;
72235;SDS011;60146;52.498;13.462;2022-10-23T05:15:56;47.73;;;14.10;;
72235;SDS011;60146;52.498;13.462;2022-10-23T05:18:23;53.13;;;16.23;;
72235;SDS011;60146;52.498;13.462;2022-10-23T05:20:51;67.47;;;18.97;;
72235;SDS011;60146;52.498;13.462;2022-10-23T05:23:18;44.07;;;14.23;;
72235;SDS011;60146;52.498;13.462;2022-10-23T05:25:44;58.07;;;16.10;;
72235;SDS011;60146;52.498;13.462;2022-10-23T05:28:10;46.73;;;15.27;;
72235;SDS011;60146;52.498;13.462;2022-10-23T05:30:35;13.33;;;5.93;;
72235;SDS011;60146;52.498;13.462;2022-10-23T05:33:01;20.60;;;7.80;;
72235;SDS011;60146;52.498;13.462;2022-10-23T05:35:26;15.97;;;6.40;;
72235;SDS011;60146;52.498;13.462;2022-10-23T05:37:52;23.80;;;8.53;;
72235;SDS011;60146;52.498;13.462;2022-10-23T05:40:19;18.97;;;7.37;;
72235;SDS011;60146;52.498;13.462;2022-10-23T05:42:44;16.77;;;6.47;;
72235;SDS011;60146;52.498;13.462;2022-10-23T05:45:09;15.93;;;5.70;;
72235;SDS011;60146;52.498;13.462;2022-10-23T05:47:35;13.50;;;6.07;;
72235;SDS011;60146;52.498;13.462;2022-10-23T05:50:00;15.67;;;6.83;;
72235;SDS011;60146;52.498;13.462;2022-10-23T05:52:25;12.03;;;5.67;;
72235;SDS011;60146;52.498;13.462;2022-10-23T05:54:50;18.83;;;6.53;;
72235;SDS011;60146;52.498;13.462;2022-10-23T05:57:16;43.57;;;14.60;;
72235;SDS011;60146;52.498;13.462;2022-10-23T05:59:41;20.77;;;8.47;;
72235;SDS011;60146;52.498;13.462;2022-10-23T06:02:06;26.30;;;8.63;;
72235;SDS011;60146;52.498;13.462;2022-10-23T06:04:32;21.23;;;7.77;;
72235;SDS011;60146;52.498;13.462;2022-10-23T06:06:57;19.73;;;7.87;;
72235;SDS011;60146;52.498;13.462;2022-10-23T06:09:23;14.80;;;6.60;;
72235;SDS011;60146;52.498;13.462;2022-10-23T06:11:48;18.23;;;7.70;;
72235;SDS011;60146;52.498;13.462;2022-10-23T06:14:13;22.63;;;8.70;;
72235;SDS011;60146;52.498;13.462;2022-10-23T06:16:38;17.10;;;7.10;;
72235;SDS011;60146;52.498;13.462;2022-10-23T06:19:04;19.20;;;7.27;;
72235;SDS011;60146;52.498;13.462;2022-10-23T06:21:29;26.07;;;9.00;;
72235;SDS011;60146;52.498;13.462;2022-10-23T06:23:54;19.00;;;7.57;;
72235;SDS011;60146;52.498;13.462;2022-10-23T06:26:20;19.07;;;7.33;;
72235;SDS011;60146;52.498;13.462;2022-10-23T06:28:45;16.93;;;8.00;;
72235;SDS011;60146;52.498;13.462;2022-10-23T06:31:11;36.43;;;15.77;;
72235;SDS011;60146;52.498;13.462;2022-10-23T06:33:37;29.17;;;10.03;;
72235;SDS011;60146;52.498;13.462;2022-10-23T06:36:02;18.23;;;6.70;;
72235;SDS011;60146;52.498;13.462;2022-10-23T06:38:29;12.77;;;6.23;;
72235;SDS011;60146;52.498;13.462;2022-10-23T06:41:00;17.53;;;7.53;;
72235;SDS011;60146;52.498;13.462;2022-10-23T06:43:25;16.33;;;7.57;;
72235;SDS011;60146;52.498;13.462;2022-10-23T06:45:50;25.30;;;9.20;;
72235;SDS011;60146;52.498;13.462;2022-10-23T06:48:16;14.83;;;6.50;;
72235;SDS011;60146;52.498;13.462;2022-10-23T06:50:41;12.80;;;5.93;;
72235;SDS011;60146;52.498;13.462;2022-10-23T06:53:06;12.57;;;5.90;;
72235;SDS011;60146;52.498;13.462;2022-10-23T06:55:32;12.30;;;5.47;;
72235;SDS011;60146;52.498;13.462;2022-10-23T06:57:57;11.83;;;5.37;;
72235;SDS011;60146;52.498;13.462;2022-10-23T07:00:22;13.53;;;6.43;;
72235;SDS011;60146;52.498;13.462;2022-10-23T07:02:48;14.80;;;6.13;;
72235;SDS011;60146;52.498;13.462;2022-10-23T07:05:13;15.03;;;6.33;;
72235;SDS011;60146;52.498;13.462;2022-10-23T07:07:39;16.30;;;6.43;;
72235;SDS011;60146;52.498;13.462;2022-10-23T07:10:04;15.90;;;6.73;;
72235;SDS011;60146;52.498;13.462;2022-10-23T07:12:29;13.87;;;5.50;;
72235;SDS011;60146;52.498;13.462;2022-10-23T07:14:55;23.67;;;8.73;;
72235;SDS011;60146;52.498;13.462;2022-10-23T07:17:20;21.37;;;9.27;;
72235;SDS011;60146;52.498;13.462;2022-10-23T07:19:45;21.53;;;8.53;;
72235;SDS011;60146;52.498;13.462;2022-10-23T07:22:10;17.67;;;7.57;;
72235;SDS011;60146;52.498;13.462;2022-10-23T07:24:36;16.17;;;7.07;;
72235;SDS011;60146;52.498;13.462;2022-10-23T07:27:03;11.20;;;5.90;;
72235;SDS011;60146;52.498;13.462;2022-10-23T07:29:28;14.53;;;6.30;;
72235;SDS011;60146;52.498;13.462;2022-10-23T07:31:53;13.97;;;6.40;;
72235;SDS011;60146;52.498;13.462;2022-10-23T07:34:18;9.97;;;5.63;;
72235;SDS011;60146;52.498;13.462;2022-10-23T07:36:43;12.83;;;5.47;;
72235;SDS011;60146;52.498;13.462;2022-10-23T07:39:09;11.20;;;5.77;;
72235;SDS011;60146;52.498;13.462;2022-10-23T07:41:34;9.20;;;4.83;;
72235;SDS011;60146;52.498;13.462;2022-10-23T07:43:59;11.97;;;5.83;;
72235;SDS011;60146;52.498;13.462;2022-10-23T07:46:24;11.83;;;5.00;;
72235;SDS011;60146;52.498;13.462;2022-10-23T07:48:49;12.13;;;6.23;;
72235;SDS011;60146;52.498;13.462;2022-10-23T07:51:15;17.13;;;6.97;;
72235;SDS011;60146;52.498;13.462;2022-10-23T07:53:41;16.37;;;6.70;;
72235;SDS011;60146;52.498;13.462;2022-10-23T07:56:13;8.43;;;4.67;;
72235;SDS011;60146;52.498;13.462;2022-10-23T07:58:39;12.17;;;5.23;;
72235;SDS011;60146;52.498;13.462;2022-10-23T08:01:05;13.30;;;5.40;;
72235;SDS011;60146;52.498;13.462;2022-10-23T08:03:37;12.57;;;5.17;;
72235;SDS011;60146;52.498;13.462;2022-10-23T08:06:02;9.57;;;4.85;;
72235;SDS011;60146;52.498;13.462;2022-10-23T08:08:27;9.80;;;5.18;;
72235;SDS011;60146;52.498;13.462;2022-10-23T08:10:53;8.57;;;4.85;;
72235;SDS011;60146;52.498;13.462;2022-10-23T08:13:19;7.20;;;4.32;;
72235;SDS011;60146;52.498;13.462;2022-10-23T08:15:45;8.93;;;4.68;;
72235;SDS011;60146;52.498;13.462;2022-10-23T08:18:10;11.73;;;5.70;;
72235;SDS011;60146;52.498;13.462;2022-10-23T08:20:39;12.18;;;5.72;;
72235;SDS011;60146;52.498;13.462;2022-10-23T08:23:05;9.25;;;4.60;;
72235;SDS011;60146;52.498;13.462;2022-10-23T08:25:30;7.90;;;4.40;;
72235;SDS011;60146;52.498;13.462;2022-10-23T08:27:55;12.07;;;4.60;;
72235;SDS011;60146;52.498;13.462;2022-10-23T08:30:20;8.90;;;4.60;;
72235;SDS011;60146;52.498;13.462;2022-10-23T08:32:46;6.65;;;4.05;;
72235;SDS011;60146;52.498;13.462;2022-10-23T08:35:11;8.45;;;4.32;;
72235;SDS011;60146;52.498;13.462;2022-10-23T08:37:36;7.55;;;4.15;;
72235;SDS011;60146;52.498;13.462;2022-10-23T08:40:01;9.13;;;4.40;;
72235;SDS011;60146;52.498;13.462;2022-10-23T08:42:27;6.97;;;4.10;;
72235;SDS011;60146;52.498;13.462;2022-10-23T08:44:58;8.07;;;4.32;;
72235;SDS011;60146;52.498;13.462;2022-10-23T08:47:30;6.00;;;4.50;;
72235;SDS011;60146;52.498;13.462;2022-10-23T08:52:45;7.05;;;3.50;;
72235;SDS011;60146;52.498;13.462;2022-10-23T08:57:57;6.70;;;3.40;;
72235;SDS011;60146;52.498;13.462;2022-10-23T09:00:24;8.02;;;3.40;;
72235;SDS011;60146;52.498;13.462;2022-10-23T09:02:50;6.25;;;3.10;;
72235;SDS011;60146;52.498;13.462;2022-10-23T09:05:18;6.72;;;2.88;;
72235;SDS011;60146;52.498;13.462;2022-10-23T09:08:03;11.60;;;3.33;;
72235;SDS011;60146;52.498;13.462;2022-10-23T09:13:20;6.35;;;2.60;;
72235;SDS011;60146;52.498;13.462;2022-10-23T09:15:46;5.28;;;2.55;;
72235;SDS011;60146;52.498;13.462;2022-10-23T09:18:14;4.85;;;2.20;;
72235;SDS011;60146;52.498;13.462;2022-10-23T09:20:41;6.95;;;2.58;;
72235;SDS011;60146;52.498;13.462;2022-10-23T09:23:13;3.65;;;2.22;;
72235;SDS011;60146;52.498;13.462;2022-10-23T09:25:39;5.60;;;2.70;;
72235;SDS011;60146;52.498;13.462;2022-10-23T09:28:05;5.63;;;2.65;;
72235;SDS011;60146;52.498;13.462;2022-10-23T09:30:37;8.68;;;2.72;;
72235;SDS011;60146;52.498;13.462;2022-10-23T09:33:17;5.78;;;2.55;;
72235;SDS011;60146;52.498;13.462;2022-10-23T09:35:56;7.82;;;2.50;;
72235;SDS011;60146;52.498;13.462;2022-10-23T09:40:47;4.00;;;2.17;;
72235;SDS011;60146;52.498;13.462;2022-10-23T09:43:13;6.40;;;2.33;;
72235;SDS011;60146;52.498;13.462;2022-10-23T09:45:39;6.40;;;2.17;;
72235;SDS011;60146;52.498;13.462;2022-10-23T09:48:17;7.30;;;2.30;;
72235;SDS011;60146;52.498;13.462;2022-10-23T09:50:46;6.10;;;2.63;;
72235;SDS011;60146;52.498;13.462;2022-10-23T09:53:34;7.68;;;2.28;;
72235;SDS011;60146;52.498;13.462;2022-10-23T09:55:58;5.50;;;2.15;;
72235;SDS011;60146;52.498;13.462;2022-10-23T09:58:31;5.60;;;2.22;;
72235;SDS011;60146;52.498;13.462;2022-10-23T10:00:57;4.57;;;2.10;;
72235;SDS011;60146;52.498;13.462;2022-10-23T10:03:23;5.68;;;2.17;;
72235;SDS011;60146;52.498;13.462;2022-10-23T10:06:00;6.82;;;2.35;;
72235;SDS011;60146;52.498;13.462;2022-10-23T10:11:06;4.40;;;1.75;;
72235;SDS011;60146;52.498;13.462;2022-10-23T10:16:10;5.15;;;2.10;;
72235;SDS011;60146;52.498;13.462;2022-10-23T10:18:41;3.33;;;1.90;;
72235;SDS011;60146;52.498;13.462;2022-10-23T10:21:16;4.05;;;1.95;;
72235;SDS011;60146;52.498;13.462;2022-10-23T10:23:45;2.83;;;1.80;;
72235;SDS011;60146;52.498;13.462;2022-10-23T10:26:18;5.55;;;1.75;;
72235;SDS011;60146;52.498;13.462;2022-10-23T10:29:03;5.78;;;2.00;;
72235;SDS011;60146;52.498;13.462;2022-10-23T10:34:12;4.30;;;2.17;;
72235;SDS011;60146;52.498;13.462;2022-10-23T10:39:31;4.35;;;2.33;;
72235;SDS011;60146;52.498;13.462;2022-10-23T10:44:37;5.45;;;2.38;;
72235;SDS011;60146;52.498;13.462;2022-10-23T10:47:11;5.13;;;2.10;;
72235;SDS011;60146;52.498;13.462;2022-10-23T10:50:21;3.97;;;2.08;;
72235;SDS011;60146;52.498;13.462;2022-10-23T10:52:34;3.38;;;2.40;;
72235;SDS011;60146;52.498;13.462;2022-10-23T10:57:48;5.63;;;2.53;;
72235;SDS011;60146;52.498;13.462;2022-10-23T11:00:21;5.25;;;2.63;;
72235;SDS011;60146;52.498;13.462;2022-10-23T11:02:47;5.88;;;2.55;;
72235;SDS011;60146;52.498;13.462;2022-10-23T11:05:29;4.30;;;2.50;;
72235;SDS011;60146;52.498;13.462;2022-10-23T11:08:06;5.43;;;2.60;;
72235;SDS011;60146;52.498;13.462;2022-10-23T11:12:59;5.32;;;2.10;;
72235;SDS011;60146;52.498;13.462;2022-10-23T11:15:26;8.95;;;3.30;;
72235;SDS011;60146;52.498;13.462;2022-10-23T11:17:56;6.60;;;2.65;;
72235;SDS011;60146;52.498;13.462;2022-10-23T11:25:52;6.93;;;2.45;;
72235;SDS011;60146;52.498;13.462;2022-10-23T11:33:59;5.03;;;2.50;;
72235;SDS011;60146;52.498;13.462;2022-10-23T11:41:45;5.20;;;2.05;;
72235;SDS011;60146;52.498;13.462;2022-10-23T11:44:21;5.32;;;2.05;;
72235;SDS011;60146;52.498;13.462;2022-10-23T11:46:47;4.90;;;2.15;;
72235;SDS011;60146;52.498;13.462;2022-10-23T11:49:23;4.65;;;1.73;;
72235;SDS011;60146;52.498;13.462;2022-10-23T11:51:57;4.20;;;1.80;;
72235;SDS011;60146;52.498;13.462;2022-10-23T11:54:26;4.15;;;1.73;;
72235;SDS011;60146;52.498;13.462;2022-10-23T12:01:55;4.20;;;1.60;;
72235;SDS011;60146;52.498;13.462;2022-10-23T12:04:55;5.93;;;2.03;;
72235;SDS011;60146;52.498;13.462;2022-10-23T12:07:33;4.72;;;1.70;;
72235;SDS011;60146;52.498;13.462;2022-10-23T12:13:00;3.92;;;1.77;;
72235;SDS011;60146;52.498;13.462;2022-10-23T12:15:27;4.88;;;1.95;;
72235;SDS011;60146;52.498;13.462;2022-10-23T12:17:53;5.10;;;1.60;;
72235;SDS011;60146;52.498;13.462;2022-10-23T12:25:38;4.32;;;1.50;;
72235;SDS011;60146;52.498;13.462;2022-10-23T12:28:26;5.10;;;1.70;;
72235;SDS011;60146;52.498;13.462;2022-10-23T12:33:43;3.38;;;1.67;;
72235;SDS011;60146;52.498;13.462;2022-10-23T12:36:14;5.80;;;1.63;;
72235;SDS011;60146;52.498;13.462;2022-10-23T12:38:45;5.93;;;1.70;;
72235;SDS011;60146;52.498;13.462;2022-10-23T12:41:21;5.60;;;1.40;;
72235;SDS011;60146;52.498;13.462;2022-10-23T12:46:27;4.78;;;1.20;;
72235;SDS011;60146;52.498;13.462;2022-10-23T12:48:54;4.25;;;1.30;;
72235;SDS011;60146;52.498;13.462;2022-10-23T12:51:23;8.02;;;1.77;;
72235;SDS011;60146;52.498;13.462;2022-10-23T12:53:49;3.25;;;1.50;;
72235;SDS011;60146;52.498;13.462;2022-10-23T12:56:15;6.13;;;1.70;;
72235;SDS011;60146;52.498;13.462;2022-10-23T12:58:44;5.18;;;1.35;;
72235;SDS011;60146;52.498;13.462;2022-10-23T13:01:20;3.85;;;1.50;;
72235;SDS011;60146;52.498;13.462;2022-10-23T13:03:46;2.85;;;1.48;;
72235;SDS011;60146;52.498;13.462;2022-10-23T13:06:11;4.93;;;1.65;;
72235;SDS011;60146;52.498;13.462;2022-10-23T13:08:44;5.28;;;1.60;;
72235;SDS011;60146;52.498;13.462;2022-10-23T13:11:13;4.15;;;1.30;;
72235;SDS011;60146;52.498;13.462;2022-10-23T13:13:39;4.47;;;1.40;;
72235;SDS011;60146;52.498;13.462;2022-10-23T13:16:21;4.32;;;1.52;;
72235;SDS011;60146;52.498;13.462;2022-10-23T13:18:47;4.90;;;2.05;;
72235;SDS011;60146;52.498;13.462;2022-10-23T13:21:15;7.03;;;1.60;;
72235;SDS011;60146;52.498;13.462;2022-10-23T13:23:40;4.75;;;1.80;;
72235;SDS011;60146;52.498;13.462;2022-10-23T13:28:51;3.28;;;1.15;;
72235;SDS011;60146;52.498;13.462;2022-10-23T13:33:45;11.12;;;1.94;;
72235;SDS011;60146;52.498;13.462;2022-10-23T13:41:04;4.06;;;1.40;;
72235;SDS011;60146;52.498;13.462;2022-10-23T13:43:30;4.13;;;1.30;;
72235;SDS011;60146;52.498;13.462;2022-10-23T13:45:56;5.35;;;1.27;;
72235;SDS011;60146;52.498;13.462;2022-10-23T13:48:22;3.97;;;1.55;;
72235;SDS011;60146;52.498;13.462;2022-10-23T13:50:47;3.30;;;1.10;;
72235;SDS011;60146;52.498;13.462;2022-10-23T13:53:12;2.90;;;1.15;;
72235;SDS011;60146;52.498;13.462;2022-10-23T13:55:38;2.75;;;1.15;;
72235;SDS011;60146;52.498;13.462;2022-10-23T13:58:04;4.38;;;1.20;;
72235;SDS011;60146;52.498;13.462;2022-10-23T14:00:29;4.78;;;1.50;;
72235;SDS011;60146;52.498;13.462;2022-10-23T14:02:54;5.25;;;1.30;;
72235;SDS011;60146;52.498;13.462;2022-10-23T14:05:20;4.53;;;1.30;;
72235;SDS011;60146;52.498;13.462;2022-10-23T14:07:45;6.93;;;1.20;;
72235;SDS011;60146;52.498;13.462;2022-10-23T14:10:10;4.57;;;1.52;;
72235;SDS011;60146;52.498;13.462;2022-10-23T14:12:39;4.72;;;1.30;;
72235;SDS011;60146;52.498;13.462;2022-10-23T14:15:04;3.88;;;1.50;;
72235;SDS011;60146;52.498;13.462;2022-10-23T14:17:29;5.45;;;1.27;;
72235;SDS011;60146;52.498;13.462;2022-10-23T14:19:55;6.30;;;1.60;;
72235;SDS011;60146;52.498;13.462;2022-10-23T14:22:20;5.20;;;1.70;;
72235;SDS011;60146;52.498;13.462;2022-10-23T14:24:45;5.43;;;1.75;;
72235;SDS011;60146;52.498;13.462;2022-10-23T14:27:10;3.50;;;1.30;;
72235;SDS011;60146;52.498;13.462;2022-10-23T14:29:36;5.90;;;1.60;;
72235;SDS011;60146;52.498;13.462;2022-10-23T14:32:01;3.50;;;1.50;;
72235;SDS011;60146;52.498;13.462;2022-10-23T14:34:26;5.68;;;1.50;;
72235;SDS011;60146;52.498;13.462;2022-10-23T14:36:51;6.32;;;1.45;;
72235;SDS011;60146;52.498;13.462;2022-10-23T14:39:17;5.47;;;1.40;;
72235;SDS011;60146;52.498;13.462;2022-10-23T14:41:42;3.95;;;1.40;;
72235;SDS011;60146;52.498;13.462;2022-10-23T14:44:07;6.55;;;1.58;;
72235;SDS011;60146;52.498;13.462;2022-10-23T14:46:32;6.92;;;1.76;;
72235;SDS011;60146;52.498;13.462;2022-10-23T14:48:59;7.68;;;2.20;;
72235;SDS011;60146;52.498;13.462;2022-10-23T14:51:25;4.50;;;1.40;;
72235;SDS011;60146;52.498;13.462;2022-10-23T14:53:54;3.73;;;1.60;;
72235;SDS011;60146;52.498;13.462;2022-10-23T14:56:20;5.53;;;1.83;;
72235;SDS011;60146;52.498;13.462;2022-10-23T14:58:45;5.22;;;1.65;;
72235;SDS011;60146;52.498;13.462;2022-10-23T15:01:10;6.43;;;1.70;;
72235;SDS011;60146;52.498;13.462;2022-10-23T15:03:36;4.85;;;1.48;;
72235;SDS011;60146;52.498;13.462;2022-10-23T15:06:01;4.00;;;1.60;;
72235;SDS011;60146;52.498;13.462;2022-10-23T15:08:26;5.97;;;1.80;;
72235;SDS011;60146;52.498;13.462;2022-10-23T15:10:52;5.13;;;1.63;;
72235;SDS011;60146;52.498;13.462;2022-10-23T15:13:17;5.27;;;1.70;;
72235;SDS011;60146;52.498;13.462;2022-10-23T15:15:42;4.27;;;1.70;;
72235;SDS011;60146;52.498;13.462;2022-10-23T15:18:07;7.93;;;2.70;;
72235;SDS011;60146;52.498;13.462;2022-10-23T15:20:33;10.17;;;2.00;;
72235;SDS011;60146;52.498;13.462;2022-10-23T15:22:58;5.03;;;1.70;;
72235;SDS011;60146;52.498;13.462;2022-10-23T15:25:25;4.57;;;1.87;;
72235;SDS011;60146;52.498;13.462;2022-10-23T15:27:50;8.40;;;2.10;;
72235;SDS011;60146;52.498;13.462;2022-10-23T15:30:16;6.37;;;2.10;;
72235;SDS011;60146;52.498;13.462;2022-10-23T15:32:41;8.80;;;2.40;;
72235;SDS011;60146;52.498;13.462;2022-10-23T15:35:07;3.67;;;2.03;;
72235;SDS011;60146;52.498;13.462;2022-10-23T15:37:32;8.10;;;2.20;;
72235;SDS011;60146;52.498;13.462;2022-10-23T15:39:57;6.96;;;2.54;;
72235;SDS011;60146;52.498;13.462;2022-10-23T15:42:22;6.10;;;2.03;;
72235;SDS011;60146;52.498;13.462;2022-10-23T15:44:47;8.10;;;2.60;;
72235;SDS011;60146;52.498;13.462;2022-10-23T15:47:13;6.87;;;2.27;;
72235;SDS011;60146;52.498;13.462;2022-10-23T15:49:39;5.17;;;2.43;;
72235;SDS011;60146;52.498;13.462;2022-10-23T15:52:04;5.53;;;2.43;;
72235;SDS011;60146;52.498;13.462;2022-10-23T15:54:29;6.03;;;2.53;;
72235;SDS011;60146;52.498;13.462;2022-10-23T15:56:54;8.23;;;2.90;;
72235;SDS011;60146;52.498;13.462;2022-10-23T15:59:21;6.37;;;2.33;;
72235;SDS011;60146;52.498;13.462;2022-10-23T16:01:47;5.80;;;2.77;;
72235;SDS011;60146;52.498;13.462;2022-10-23T16:04:12;10.20;;;2.77;;
72235;SDS011;60146;52.498;13.462;2022-10-23T16:06:37;7.13;;;2.63;;
72235;SDS011;60146;52.498;13.462;2022-10-23T16:09:03;9.63;;;3.27;;
72235;SDS011;60146;52.498;13.462;2022-10-23T16:11:29;6.43;;;2.50;;
72235;SDS011;60146;52.498;13.462;2022-10-23T16:13:55;7.90;;;3.00;;
72235;SDS011;60146;52.498;13.462;2022-10-23T16:16:20;8.70;;;3.17;;
72235;SDS011;60146;52.498;13.462;2022-10-23T16:18:45;6.87;;;3.37;;